sensor_id;sensor_type;location;lat;lon;timestamp;pressure;altitude;pressure_sealevel;temperature;humidity
36222;BME280;22266;52.340;4.962;2023-05-24T00:01:58;102478.13;;;12.17;61.18
36222;BME280;22266;52.340;4.962;2023-05-24T00:04:25;102484.88;;;12.13;61.83
36222;BME280;22266;52.340;4.962;2023-05-24T00:06:55;102481.84;;;12.08;61.93
36222;BME280;22266;52.340;4.962;2023-05-24T00:09:22;102487.53;;;12.05;62.11
36222;BME280;22266;52.340;4.962;2023-05-24T00:11:48;102482.31;;;12.03;62.12
36222;BME280;22266;52.340;4.962;2023-05-24T00:14:15;102487.88;;;12.02;62.51
36222;BME280;22266;52.340;4.962;2023-05-24T00:16:41;102489.91;;;12.00;62.61
36222;BME280;22266;52.340;4.962;2023-05-24T00:19:08;102491.91;;;11.98;62.49
36222;BME280;22266;52.340;4.962;2023-05-24T00:21:36;102485.97;;;11.94;62.51
36222;BME280;22266;52.340;4.962;2023-05-24T00:24:03;102482.75;;;11.91;62.68
36222;BME280;22266;52.340;4.962;2023-05-24T00:26:29;102483.94;;;11.88;62.79
36222;BME280;22266;52.340;4.962;2023-05-24T00:28:56;102481.38;;;11.86;63.03
36222;BME280;22266;52.340;4.962;2023-05-24T00:31:22;102479.72;;;11.85;63.13
36222;BME280;22266;52.340;4.962;2023-05-24T00:33:49;102483.59;;;11.83;63.22
36222;BME280;22266;52.340;4.962;2023-05-24T00:36:17;102477.28;;;11.82;63.22
36222;BME280;22266;52.340;4.962;2023-05-24T00:38:46;102483.59;;;11.83;63.37
36222;BME280;22266;52.340;4.962;2023-05-24T00:41:14;102481.56;;;11.85;63.46
36222;BME280;22266;52.340;4.962;2023-05-24T00:43:41;102484.09;;;11.86;63.45
36222;BME280;22266;52.340;4.962;2023-05-24T00:46:31;102481.25;;;11.88;63.21
36222;BME280;22266;52.340;4.962;2023-05-24T00:48:59;102476.69;;;11.88;63.32
36222;BME280;22266;52.340;4.962;2023-05-24T00:51:26;102479.38;;;11.88;63.46
36222;BME280;22266;52.340;4.962;2023-05-24T00:53:53;102474.66;;;11.91;63.52
36222;BME280;22266;52.340;4.962;2023-05-24T00:56:20;102478.38;;;11.90;63.08
36222;BME280;22266;52.340;4.962;2023-05-24T00:58:47;102476.69;;;11.88;63.33
36222;BME280;22266;52.340;4.962;2023-05-24T01:01:15;102466.91;;;11.87;63.50
36222;BME280;22266;52.340;4.962;2023-05-24T01:03:43;102469.75;;;11.86;63.50
36222;BME280;22266;52.340;4.962;2023-05-24T01:06:12;102474.16;;;11.87;63.54
36222;BME280;22266;52.340;4.962;2023-05-24T01:08:47;102475.00;;;11.87;63.85
36222;BME280;22266;52.340;4.962;2023-05-24T01:11:26;102475.00;;;11.87;63.58
36222;BME280;22266;52.340;4.962;2023-05-24T01:14:34;102471.63;;;11.85;63.88
36222;BME280;22266;52.340;4.962;2023-05-24T01:17:21;102471.22;;;11.80;63.89
36222;BME280;22266;52.340;4.962;2023-05-24T01:20:01;102474.94;;;11.79;64.11
36222;BME280;22266;52.340;4.962;2023-05-24T01:23:03;102467.00;;;11.78;64.23
36222;BME280;22266;52.340;4.962;2023-05-24T01:28:40;102463.13;;;11.80;64.73
36222;BME280;22266;52.340;4.962;2023-05-24T01:31:10;102463.97;;;11.81;64.48
36222;BME280;22266;52.340;4.962;2023-05-24T01:33:41;102464.81;;;11.81;64.66
36222;BME280;22266;52.340;4.962;2023-05-24T01:36:08;102473.94;;;11.80;64.53
36222;BME280;22266;52.340;4.962;2023-05-24T01:38:36;102466.00;;;11.79;64.67
36222;BME280;22266;52.340;4.962;2023-05-24T01:41:09;102470.00;;;11.75;64.68
36222;BME280;22266;52.340;4.962;2023-05-24T01:43:39;102473.19;;;11.70;64.83
36222;BME280;22266;52.340;4.962;2023-05-24T01:46:17;102472.66;;;11.67;64.92
36222;BME280;22266;52.340;4.962;2023-05-24T01:49:05;102462.06;;;11.65;65.05
36222;BME280;22266;52.340;4.962;2023-05-24T01:51:40;102463.06;;;11.64;65.37
36222;BME280;22266;52.340;4.962;2023-05-24T01:54:11;102460.38;;;11.64;65.33
36222;BME280;22266;52.340;4.962;2023-05-24T01:56:40;102455.28;;;11.61;65.32
36222;BME280;22266;52.340;4.962;2023-05-24T01:59:09;102449.22;;;11.59;65.59
36222;BME280;22266;52.340;4.962;2023-05-24T02:01:37;102460.16;;;11.57;65.29
36222;BME280;22266;52.340;4.962;2023-05-24T02:04:04;102460.47;;;11.54;65.49
36222;BME280;22266;52.340;4.962;2023-05-24T02:06:30;102450.19;;;11.50;65.40
36222;BME280;22266;52.340;4.962;2023-05-24T02:08:57;102451.19;;;11.49;65.63
36222;BME280;22266;52.340;4.962;2023-05-24T02:11:23;102450.53;;;11.47;65.98
36222;BME280;22266;52.340;4.962;2023-05-24T02:13:51;102447.13;;;11.45;65.81
36222;BME280;22266;52.340;4.962;2023-05-24T02:16:17;102444.44;;;11.45;66.02
36222;BME280;22266;52.340;4.962;2023-05-24T02:18:44;102446.94;;;11.46;66.04
36222;BME280;22266;52.340;4.962;2023-05-24T02:21:12;102442.75;;;11.44;66.08
36222;BME280;22266;52.340;4.962;2023-05-24T02:23:39;102447.44;;;11.42;66.29
36222;BME280;22266;52.340;4.962;2023-05-24T02:26:05;102442.38;;;11.38;66.03
36222;BME280;22266;52.340;4.962;2023-05-24T02:28:32;102442.53;;;11.37;66.30
36222;BME280;22266;52.340;4.962;2023-05-24T02:30:59;102447.09;;;11.36;66.84
36222;BME280;22266;52.340;4.962;2023-05-24T02:33:25;102442.84;;;11.34;66.40
36222;BME280;22266;52.340;4.962;2023-05-24T02:35:52;102450.09;;;11.33;66.67
36222;BME280;22266;52.340;4.962;2023-05-24T02:38:18;102442.34;;;11.30;66.77
36222;BME280;22266;52.340;4.962;2023-05-24T02:40:45;102443.31;;;11.29;66.82
36222;BME280;22266;52.340;4.962;2023-05-24T02:43:11;102441.63;;;11.28;66.44
36222;BME280;22266;52.340;4.962;2023-05-24T02:45:38;102444.66;;;11.25;66.52
36222;BME280;22266;52.340;4.962;2023-05-24T02:48:05;102446.50;;;11.25;66.94
36222;BME280;22266;52.340;4.962;2023-05-24T02:50:31;102443.97;;;11.23;66.80
36222;BME280;22266;52.340;4.962;2023-05-24T02:52:58;102449.69;;;11.20;67.05
36222;BME280;22266;52.340;4.962;2023-05-24T02:55:24;102456.94;;;11.20;67.10
36222;BME280;22266;52.340;4.962;2023-05-24T02:57:52;102447.81;;;11.21;67.15
36222;BME280;22266;52.340;4.962;2023-05-24T03:00:19;102447.69;;;11.22;67.32
36222;BME280;22266;52.340;4.962;2023-05-24T03:02:46;102446.69;;;11.23;67.22
36222;BME280;22266;52.340;4.962;2023-05-24T03:05:13;102441.44;;;11.22;67.58
36222;BME280;22266;52.340;4.962;2023-05-24T03:07:39;102446.16;;;11.20;67.20
36222;BME280;22266;52.340;4.962;2023-05-24T03:10:06;102445.78;;;11.14;67.10
36222;BME280;22266;52.340;4.962;2023-05-24T03:12:33;102440.53;;;11.13;67.20
36222;BME280;22266;52.340;4.962;2023-05-24T03:14:59;102437.00;;;11.12;67.31
36222;BME280;22266;52.340;4.962;2023-05-24T03:17:26;102446.75;;;11.13;67.72
36222;BME280;22266;52.340;4.962;2023-05-24T03:19:52;102441.53;;;11.12;67.53
36222;BME280;22266;52.340;4.962;2023-05-24T03:22:19;102445.25;;;11.11;67.57
36222;BME280;22266;52.340;4.962;2023-05-24T03:24:46;102442.88;;;11.08;67.22
36222;BME280;22266;52.340;4.962;2023-05-24T03:27:14;102438.78;;;11.04;67.55
36222;BME280;22266;52.340;4.962;2023-05-24T03:29:40;102448.72;;;11.03;67.81
36222;BME280;22266;52.340;4.962;2023-05-24T03:32:07;102443.34;;;11.03;67.78
36222;BME280;22266;52.340;4.962;2023-05-24T03:34:34;102439.63;;;11.04;67.70
36222;BME280;22266;52.340;4.962;2023-05-24T03:37:01;102448.72;;;11.03;67.72
36222;BME280;22266;52.340;4.962;2023-05-24T03:39:27;102448.03;;;11.01;67.70
36222;BME280;22266;52.340;4.962;2023-05-24T03:42:05;102448.88;;;11.02;67.85
36222;BME280;22266;52.340;4.962;2023-05-24T03:44:33;102449.03;;;11.00;68.08
36222;BME280;22266;52.340;4.962;2023-05-24T03:46:59;102448.19;;;11.00;68.21
36222;BME280;22266;52.340;4.962;2023-05-24T03:49:26;102456.13;;;11.01;68.28
36222;BME280;22266;52.340;4.962;2023-05-24T03:51:54;102449.56;;;11.04;68.03
36222;BME280;22266;52.340;4.962;2023-05-24T03:54:20;102452.63;;;11.09;68.24
36222;BME280;22266;52.340;4.962;2023-05-24T03:56:47;102444.41;;;11.10;68.06
36222;BME280;22266;52.340;4.962;2023-05-24T03:59:13;102447.78;;;11.12;67.84
36222;BME280;22266;52.340;4.962;2023-05-24T04:01:40;102439.56;;;11.14;68.06
36222;BME280;22266;52.340;4.962;2023-05-24T04:04:07;102438.53;;;11.15;68.01
36222;BME280;22266;52.340;4.962;2023-05-24T04:06:34;102434.00;;;11.16;68.13
36222;BME280;22266;52.340;4.962;2023-05-24T04:09:02;102438.53;;;11.15;68.29
36222;BME280;22266;52.340;4.962;2023-05-24T04:11:30;102440.06;;;11.18;67.96
36222;BME280;22266;52.340;4.962;2023-05-24T04:13:57;102436.19;;;11.20;68.14
36222;BME280;22266;52.340;4.962;2023-05-24T04:16:28;102442.28;;;11.22;68.18
36222;BME280;22266;52.340;4.962;2023-05-24T04:18:59;102439.25;;;11.25;68.04
36222;BME280;22266;52.340;4.962;2023-05-24T04:21:29;102440.81;;;11.28;68.32
36222;BME280;22266;52.340;4.962;2023-05-24T04:23:57;102451.41;;;11.29;68.12
36222;BME280;22266;52.340;4.962;2023-05-24T04:26:26;102445.72;;;11.32;68.21
36222;BME280;22266;52.340;4.962;2023-05-24T04:28:53;102450.09;;;11.33;68.39
36222;BME280;22266;52.340;4.962;2023-05-24T04:31:20;102448.75;;;11.37;68.26
36222;BME280;22266;52.340;4.962;2023-05-24T04:33:46;102441.38;;;11.39;68.45
36222;BME280;22266;52.340;4.962;2023-05-24T04:36:14;102446.09;;;11.46;68.40
36222;BME280;22266;52.340;4.962;2023-05-24T04:38:41;102435.00;;;11.49;68.38
36222;BME280;22266;52.340;4.962;2023-05-24T04:44:00;102431.69;;;11.55;68.47
36222;BME280;22266;52.340;4.962;2023-05-24T04:46:27;102428.81;;;11.56;67.91
36222;BME280;22266;52.340;4.962;2023-05-24T04:48:54;102428.50;;;11.59;68.41
36222;BME280;22266;52.340;4.962;2023-05-24T04:51:21;102439.81;;;11.63;68.68
36222;BME280;22266;52.340;4.962;2023-05-24T04:53:47;102440.31;;;11.67;68.45
36222;BME280;22266;52.340;4.962;2023-05-24T04:56:14;102440.69;;;11.72;68.58
36222;BME280;22266;52.340;4.962;2023-05-24T04:58:42;102436.34;;;11.79;68.54
36222;BME280;22266;52.340;4.962;2023-05-24T05:01:08;102434.69;;;11.86;68.13
36222;BME280;22266;52.340;4.962;2023-05-24T05:03:35;102442.28;;;11.91;68.01
36222;BME280;22266;52.340;4.962;2023-05-24T05:06:01;102434.88;;;11.93;67.87
36222;BME280;22266;52.340;4.962;2023-05-24T05:08:28;102439.25;;;11.94;67.86
36222;BME280;22266;52.340;4.962;2023-05-24T05:10:56;102444.50;;;11.95;67.75
36222;BME280;22266;52.340;4.962;2023-05-24T05:13:22;102447.69;;;11.99;67.66
36222;BME280;22266;52.340;4.962;2023-05-24T05:15:49;102449.25;;;12.01;67.58
36222;BME280;22266;52.340;4.962;2023-05-24T05:18:15;102458.34;;;12.00;67.40
36222;BME280;22266;52.340;4.962;2023-05-24T05:20:42;102458.50;;;11.99;67.36
36222;BME280;22266;52.340;4.962;2023-05-24T05:23:09;102460.34;;;11.98;67.25
36222;BME280;22266;52.340;4.962;2023-05-24T05:25:35;102460.34;;;11.98;67.17
36222;BME280;22266;52.340;4.962;2023-05-24T05:28:02;102459.50;;;11.98;67.09
36222;BME280;22266;52.340;4.962;2023-05-24T05:30:28;102462.38;;;11.96;67.21
36222;BME280;22266;52.340;4.962;2023-05-24T05:32:55;102472.19;;;12.05;67.52
36222;BME280;22266;52.340;4.962;2023-05-24T05:35:21;102460.91;;;12.18;67.20
36222;BME280;22266;52.340;4.962;2023-05-24T05:37:48;102462.16;;;12.32;66.55
36222;BME280;22266;52.340;4.962;2023-05-24T05:40:14;102467.06;;;12.45;66.36
36222;BME280;22266;52.340;4.962;2023-05-24T05:42:41;102470.28;;;12.56;65.74
36222;BME280;22266;52.340;4.962;2023-05-24T05:45:08;102474.66;;;12.66;65.18
36222;BME280;22266;52.340;4.962;2023-05-24T05:47:34;102476.22;;;12.76;65.13
36222;BME280;22266;52.340;4.962;2023-05-24T05:50:01;102470.78;;;12.93;65.07
36222;BME280;22266;52.340;4.962;2023-05-24T05:52:28;102473.81;;;12.98;64.43
36222;BME280;22266;52.340;4.962;2023-05-24T05:54:54;102470.63;;;12.94;63.89
36222;BME280;22266;52.340;4.962;2023-05-24T05:57:21;102465.53;;;12.91;63.69
36222;BME280;22266;52.340;4.962;2023-05-24T05:59:49;102463.69;;;12.92;63.85
36222;BME280;22266;52.340;4.962;2023-05-24T06:02:16;102468.75;;;12.95;63.64
36222;BME280;22266;52.340;4.962;2023-05-24T06:04:45;102479.75;;;13.01;63.66
36222;BME280;22266;52.340;4.962;2023-05-24T06:07:11;102468.56;;;13.04;63.21
36222;BME280;22266;52.340;4.962;2023-05-24T06:09:38;102474.84;;;13.05;63.04
36222;BME280;22266;52.340;4.962;2023-05-24T06:12:05;102476.19;;;13.01;63.28
36222;BME280;22266;52.340;4.962;2023-05-24T06:14:31;102476.53;;;12.98;63.18
36222;BME280;22266;52.340;4.962;2023-05-24T06:16:59;102483.28;;;12.94;63.44
36222;BME280;22266;52.340;4.962;2023-05-24T06:19:26;102479.06;;;12.83;63.71
36222;BME280;22266;52.340;4.962;2023-05-24T06:21:52;102482.44;;;12.85;63.74
36222;BME280;22266;52.340;4.962;2023-05-24T06:24:19;102487.69;;;12.86;63.66
36222;BME280;22266;52.340;4.962;2023-05-24T06:26:47;102490.72;;;12.83;63.33
36222;BME280;22266;52.340;4.962;2023-05-24T06:29:14;102480.25;;;12.80;63.33
36222;BME280;22266;52.340;4.962;2023-05-24T06:31:40;102485.47;;;12.82;63.42
36222;BME280;22266;52.340;4.962;2023-05-24T06:34:08;102484.47;;;12.83;63.59
36222;BME280;22266;52.340;4.962;2023-05-24T06:36:35;102486.31;;;12.82;63.03
36222;BME280;22266;52.340;4.962;2023-05-24T06:39:07;102488.84;;;12.84;63.54
36222;BME280;22266;52.340;4.962;2023-05-24T06:41:33;102479.38;;;12.88;63.30
36222;BME280;22266;52.340;4.962;2023-05-24T06:44:00;102477.56;;;12.80;63.06
36222;BME280;22266;52.340;4.962;2023-05-24T06:46:26;102483.81;;;12.81;62.68
36222;BME280;22266;52.340;4.962;2023-05-24T06:48:53;102480.41;;;12.87;62.75
36222;BME280;22266;52.340;4.962;2023-05-24T06:51:20;102479.25;;;12.90;62.72
36222;BME280;22266;52.340;4.962;2023-05-24T06:53:47;102479.38;;;12.96;62.98
36222;BME280;22266;52.340;4.962;2023-05-24T06:56:13;102489.34;;;12.87;62.92
36222;BME280;22266;52.340;4.962;2023-05-24T06:58:40;102476.22;;;12.84;63.11
36222;BME280;22266;52.340;4.962;2023-05-24T07:01:07;102491.22;;;12.87;63.03
36222;BME280;22266;52.340;4.962;2023-05-24T07:03:34;102486.66;;;12.87;63.08
36222;BME280;22266;52.340;4.962;2023-05-24T07:06:00;102492.06;;;12.96;63.10
36222;BME280;22266;52.340;4.962;2023-05-24T07:08:27;102501.50;;;13.00;63.09
36222;BME280;22266;52.340;4.962;2023-05-24T07:10:54;102493.06;;;13.03;62.30
36222;BME280;22266;52.340;4.962;2023-05-24T07:13:21;102498.31;;;13.04;61.66
36222;BME280;22266;52.340;4.962;2023-05-24T07:15:48;102494.09;;;13.02;61.55
36222;BME280;22266;52.340;4.962;2023-05-24T07:18:15;102501.69;;;12.98;61.62
36222;BME280;22266;52.340;4.962;2023-05-24T07:20:41;102505.94;;;12.93;61.61
36222;BME280;22266;52.340;4.962;2023-05-24T07:23:08;102506.41;;;12.88;61.48
36222;BME280;22266;52.340;4.962;2023-05-24T07:25:35;102501.69;;;12.82;61.67
36222;BME280;22266;52.340;4.962;2023-05-24T07:28:02;102486.66;;;12.96;61.78
36222;BME280;22266;52.340;4.962;2023-05-24T07:30:28;102485.97;;;13.10;61.88
36222;BME280;22266;52.340;4.962;2023-05-24T07:32:58;102496.13;;;13.24;61.84
36222;BME280;22266;52.340;4.962;2023-05-24T07:35:25;102493.41;;;13.32;61.11
36222;BME280;22266;52.340;4.962;2023-05-24T07:37:51;102491.72;;;13.31;60.41
36222;BME280;22266;52.340;4.962;2023-05-24T07:40:18;102495.78;;;13.27;59.70
36222;BME280;22266;52.340;4.962;2023-05-24T07:42:44;102496.59;;;13.20;59.60
36222;BME280;22266;52.340;4.962;2023-05-24T07:45:12;102494.28;;;13.25;59.69
36222;BME280;22266;52.340;4.962;2023-05-24T07:47:40;102490.53;;;13.34;59.51
36222;BME280;22266;52.340;4.962;2023-05-24T07:50:07;102487.31;;;13.39;59.44
36222;BME280;22266;52.340;4.962;2023-05-24T07:52:33;102485.97;;;13.43;58.87
36222;BME280;22266;52.340;4.962;2023-05-24T07:55:00;102482.06;;;13.45;58.92
36222;BME280;22266;52.340;4.962;2023-05-24T07:57:27;102491.69;;;13.48;58.56
36222;BME280;22266;52.340;4.962;2023-05-24T07:59:53;102486.47;;;13.46;58.46
36222;BME280;22266;52.340;4.962;2023-05-24T08:02:20;102495.22;;;13.48;58.30
36222;BME280;22266;52.340;4.962;2023-05-24T08:04:46;102497.41;;;13.53;57.60
36222;BME280;22266;52.340;4.962;2023-05-24T08:07:13;102493.00;;;13.60;57.75
36222;BME280;22266;52.340;4.962;2023-05-24T08:09:40;102487.75;;;13.67;57.49
36222;BME280;22266;52.340;4.962;2023-05-24T08:12:07;102492.09;;;13.76;57.28
36222;BME280;22266;52.340;4.962;2023-05-24T08:14:33;102484.63;;;13.86;57.38
36222;BME280;22266;52.340;4.962;2023-05-24T08:17:00;102487.16;;;13.88;56.93
36222;BME280;22266;52.340;4.962;2023-05-24T08:19:27;102475.78;;;13.92;57.40
36222;BME280;22266;52.340;4.962;2023-05-24T08:21:54;102479.50;;;13.99;57.29
36222;BME280;22266;52.340;4.962;2023-05-24T08:24:22;102479.63;;;14.06;57.02
36222;BME280;22266;52.340;4.962;2023-05-24T08:26:49;102470.78;;;14.12;56.87
36222;BME280;22266;52.340;4.962;2023-05-24T08:29:17;102485.31;;;14.19;56.90
36222;BME280;22266;52.340;4.962;2023-05-24T08:31:44;102481.72;;;14.27;57.06
36222;BME280;22266;52.340;4.962;2023-05-24T08:34:11;102482.22;;;14.30;56.83
36222;BME280;22266;52.340;4.962;2023-05-24T08:36:39;102478.13;;;14.34;56.73
36222;BME280;22266;52.340;4.962;2023-05-24T08:39:07;102469.94;;;14.43;56.61
36222;BME280;22266;52.340;4.962;2023-05-24T08:41:34;102473.09;;;14.54;56.30
36222;BME280;22266;52.340;4.962;2023-05-24T08:44:06;102483.69;;;14.64;55.92
36222;BME280;22266;52.340;4.962;2023-05-24T08:46:34;102490.06;;;14.71;55.51
36222;BME280;22266;52.340;4.962;2023-05-24T08:49:01;102488.75;;;14.67;55.62
36222;BME280;22266;52.340;4.962;2023-05-24T08:51:30;102486.88;;;14.68;55.34
36222;BME280;22266;52.340;4.962;2023-05-24T08:53:58;102487.59;;;14.62;55.60
36222;BME280;22266;52.340;4.962;2023-05-24T08:56:26;102492.91;;;14.55;55.51
36222;BME280;22266;52.340;4.962;2023-05-24T08:58:54;102488.69;;;14.52;55.66
36222;BME280;22266;52.340;4.962;2023-05-24T09:01:23;102494.28;;;14.51;55.18
36222;BME280;22266;52.340;4.962;2023-05-24T09:03:50;102478.91;;;14.43;55.17
36222;BME280;22266;52.340;4.962;2023-05-24T09:06:17;102490.09;;;14.40;54.59
36222;BME280;22266;52.340;4.962;2023-05-24T09:08:44;102492.44;;;14.43;54.49
36222;BME280;22266;52.340;4.962;2023-05-24T09:11:13;102481.41;;;14.45;54.88
36222;BME280;22266;52.340;4.962;2023-05-24T09:13:40;102488.34;;;14.47;54.77
36222;BME280;22266;52.340;4.962;2023-05-24T09:16:07;102487.50;;;14.47;54.93
36222;BME280;22266;52.340;4.962;2023-05-24T09:18:34;102489.19;;;14.48;54.97
36222;BME280;22266;52.340;4.962;2023-05-24T09:21:00;102490.22;;;14.47;55.32
36222;BME280;22266;52.340;4.962;2023-05-24T09:23:27;102488.22;;;14.41;55.60
36222;BME280;22266;52.340;4.962;2023-05-24T09:25:53;102487.63;;;14.30;54.92
36222;BME280;22266;52.340;4.962;2023-05-24T09:28:20;102484.59;;;14.25;55.10
36222;BME280;22266;52.340;4.962;2023-05-24T09:30:58;102484.22;;;14.28;55.33
36222;BME280;22266;52.340;4.962;2023-05-24T09:33:29;102476.59;;;14.32;55.11
36222;BME280;22266;52.340;4.962;2023-05-24T09:35:59;102476.72;;;14.39;55.34
36222;BME280;22266;52.340;4.962;2023-05-24T09:38:26;102476.53;;;14.40;54.64
36222;BME280;22266;52.340;4.962;2023-05-24T09:41:11;102482.31;;;14.37;53.90
36222;BME280;22266;52.340;4.962;2023-05-24T09:43:48;102473.00;;;14.40;54.69
36222;BME280;22266;52.340;4.962;2023-05-24T09:46:16;102474.97;;;14.46;54.35
36222;BME280;22266;52.340;4.962;2023-05-24T09:48:56;102472.72;;;14.57;54.49
36222;BME280;22266;52.340;4.962;2023-05-24T09:51:23;102472.97;;;14.71;54.02
36222;BME280;22266;52.340;4.962;2023-05-24T09:53:50;102474.94;;;14.77;53.62
36222;BME280;22266;52.340;4.962;2023-05-24T09:56:18;102479.81;;;14.81;53.90
36222;BME280;22266;52.340;4.962;2023-05-24T09:58:45;102482.81;;;14.87;53.78
36222;BME280;22266;52.340;4.962;2023-05-24T10:01:11;102470.34;;;15.00;53.89
36222;BME280;22266;52.340;4.962;2023-05-24T10:03:54;102474.50;;;15.11;52.63
36222;BME280;22266;52.340;4.962;2023-05-24T10:06:21;102480.28;;;15.23;52.50
36222;BME280;22266;52.340;4.962;2023-05-24T10:08:50;102473.75;;;15.32;52.79
36222;BME280;22266;52.340;4.962;2023-05-24T10:11:17;102476.19;;;15.42;52.88
36222;BME280;22266;52.340;4.962;2023-05-24T10:13:44;102458.78;;;15.51;52.10
36222;BME280;22266;52.340;4.962;2023-05-24T10:16:10;102481.31;;;15.51;52.03
36222;BME280;22266;52.340;4.962;2023-05-24T10:18:38;102474.03;;;15.37;50.83
36222;BME280;22266;52.340;4.962;2023-05-24T10:21:05;102475.06;;;15.21;51.93
36222;BME280;22266;52.340;4.962;2023-05-24T10:23:37;102479.34;;;15.16;51.92
36222;BME280;22266;52.340;4.962;2023-05-24T10:26:06;102477.72;;;15.06;52.45
36222;BME280;22266;52.340;4.962;2023-05-24T10:28:37;102480.16;;;15.01;52.34
36222;BME280;22266;52.340;4.962;2023-05-24T10:31:14;102479.03;;;14.96;52.35
36222;BME280;22266;52.340;4.962;2023-05-24T10:33:44;102486.06;;;14.82;52.60
36222;BME280;22266;52.340;4.962;2023-05-24T10:36:12;102484.59;;;14.79;53.65
36222;BME280;22266;52.340;4.962;2023-05-24T10:38:41;102488.25;;;14.87;53.91
36222;BME280;22266;52.340;4.962;2023-05-24T10:41:10;102483.50;;;14.89;53.91
36222;BME280;22266;52.340;4.962;2023-05-24T10:43:38;102483.78;;;14.94;54.31
36222;BME280;22266;52.340;4.962;2023-05-24T10:46:07;102488.66;;;14.98;53.64
36222;BME280;22266;52.340;4.962;2023-05-24T10:48:35;102491.06;;;14.93;53.52
36222;BME280;22266;52.340;4.962;2023-05-24T10:51:37;102493.50;;;14.88;53.57
36222;BME280;22266;52.340;4.962;2023-05-24T10:54:14;102489.47;;;14.84;54.14
36222;BME280;22266;52.340;4.962;2023-05-24T10:56:46;102485.31;;;14.73;54.09
36222;BME280;22266;52.340;4.962;2023-05-24T10:59:28;102478.56;;;14.69;54.48
36222;BME280;22266;52.340;4.962;2023-05-24T11:01:58;102482.66;;;14.65;55.30
36222;BME280;22266;52.340;4.962;2023-05-24T11:04:30;102488.09;;;14.65;55.41
36222;BME280;22266;52.340;4.962;2023-05-24T11:07:02;102481.19;;;14.63;54.87
36222;BME280;22266;52.340;4.962;2023-05-24T11:09:29;102482.84;;;14.64;55.31
36222;BME280;22266;52.340;4.962;2023-05-24T11:12:06;102476.59;;;14.63;55.35
36222;BME280;22266;52.340;4.962;2023-05-24T11:14:37;102477.59;;;14.62;55.38
36222;BME280;22266;52.340;4.962;2023-05-24T11:17:07;102479.47;;;14.62;54.95
36222;BME280;22266;52.340;4.962;2023-05-24T11:22:03;102476.28;;;14.58;55.63
36222;BME280;22266;52.340;4.962;2023-05-24T11:24:32;102482.00;;;14.63;56.05
36222;BME280;22266;52.340;4.962;2023-05-24T11:26:59;102486.41;;;14.64;55.62
36222;BME280;22266;52.340;4.962;2023-05-24T11:29:28;102479.59;;;14.68;55.51
36222;BME280;22266;52.340;4.962;2023-05-24T11:31:56;102480.44;;;14.69;55.68
36222;BME280;22266;52.340;4.962;2023-05-24T11:34:27;102482.38;;;14.83;55.83
36222;BME280;22266;52.340;4.962;2023-05-24T11:36:55;102490.44;;;14.91;54.67
36222;BME280;22266;52.340;4.962;2023-05-24T11:39:21;102487.41;;;14.86;55.03
36222;BME280;22266;52.340;4.962;2023-05-24T11:41:49;102483.78;;;14.94;55.33
36222;BME280;22266;52.340;4.962;2023-05-24T11:44:17;102489.31;;;15.00;54.72
36222;BME280;22266;52.340;4.962;2023-05-24T11:46:45;102481.19;;;15.00;54.86
36222;BME280;22266;52.340;4.962;2023-05-24T11:49:15;102483.63;;;15.10;54.70
36222;BME280;22266;52.340;4.962;2023-05-24T11:51:42;102484.31;;;15.12;54.86
36222;BME280;22266;52.340;4.962;2023-05-24T11:54:09;102485.41;;;15.18;54.12
36222;BME280;22266;52.340;4.962;2023-05-24T11:56:36;102482.97;;;15.08;54.77
36222;BME280;22266;52.340;4.962;2023-05-24T11:59:16;102478.59;;;15.07;53.93
36222;BME280;22266;52.340;4.962;2023-05-24T12:01:43;102482.31;;;15.06;54.10
36222;BME280;22266;52.340;4.962;2023-05-24T12:04:10;102481.94;;;15.09;55.29
36222;BME280;22266;52.340;4.962;2023-05-24T12:06:42;102486.94;;;15.20;56.47
36222;BME280;22266;52.340;4.962;2023-05-24T12:09:11;102484.88;;;15.22;54.49
36222;BME280;22266;52.340;4.962;2023-05-24T12:11:42;102475.06;;;15.21;54.27
36222;BME280;22266;52.340;4.962;2023-05-24T12:14:23;102479.72;;;15.13;54.34
36222;BME280;22266;52.340;4.962;2023-05-24T12:16:54;102487.28;;;15.17;55.53
36222;BME280;22266;52.340;4.962;2023-05-24T12:19:28;102486.47;;;15.17;54.79
36222;BME280;22266;52.340;4.962;2023-05-24T12:22:03;102489.06;;;15.10;54.57
36222;BME280;22266;52.340;4.962;2023-05-24T12:24:31;102483.72;;;15.02;54.62
36222;BME280;22266;52.340;4.962;2023-05-24T12:27:02;102492.59;;;14.96;55.33
36222;BME280;22266;52.340;4.962;2023-05-24T12:29:34;102480.41;;;14.92;55.26
36222;BME280;22266;52.340;4.962;2023-05-24T12:32:01;102480.78;;;14.89;55.82
36222;BME280;22266;52.340;4.962;2023-05-24T12:34:28;102479.38;;;14.93;56.22
36222;BME280;22266;52.340;4.962;2023-05-24T12:36:55;102477.72;;;14.92;55.72
36222;BME280;22266;52.340;4.962;2023-05-24T12:39:23;102485.78;;;14.77;55.75
36222;BME280;22266;52.340;4.962;2023-05-24T12:41:57;102485.84;;;14.69;55.96
36222;BME280;22266;52.340;4.962;2023-05-24T12:44:25;102484.53;;;14.65;56.80
36222;BME280;22266;52.340;4.962;2023-05-24T12:46:53;102481.75;;;14.73;56.89
36222;BME280;22266;52.340;4.962;2023-05-24T12:49:23;102482.16;;;14.84;56.56
36222;BME280;22266;52.340;4.962;2023-05-24T12:51:52;102483.28;;;14.90;55.93
36222;BME280;22266;52.340;4.962;2023-05-24T12:54:21;102482.38;;;14.98;55.58
36222;BME280;22266;52.340;4.962;2023-05-24T12:56:48;102474.56;;;15.03;55.81
36222;BME280;22266;52.340;4.962;2023-05-24T12:59:16;102481.09;;;15.08;55.75
36222;BME280;22266;52.340;4.962;2023-05-24T13:01:42;102478.97;;;15.04;54.92
36222;BME280;22266;52.340;4.962;2023-05-24T13:04:12;102480.03;;;14.95;55.98
36222;BME280;22266;52.340;4.962;2023-05-24T13:06:38;102477.03;;;14.90;55.67